createdAt,value
2022-07-27T00:01:14.634Z,54.36
2022-07-27T00:03:44.671Z,54.88
2022-07-27T00:06:13.425Z,55.04
2022-07-27T00:08:41.628Z,55.33
2022-07-27T00:11:11.646Z,55.33
2022-07-27T00:13:40.691Z,55.62
2022-07-27T00:16:09.425Z,55.31
2022-07-27T00:18:37.616Z,55.53
2022-07-27T00:21:05.885Z,55.92
2022-07-27T00:23:34.116Z,55.89
2022-07-27T00:26:02.217Z,55.80
2022-07-27T00:28:31.768Z,56.16
2022-07-27T00:31:00.164Z,55.78
2022-07-27T00:33:28.353Z,56.13
2022-07-27T00:35:56.468Z,55.71
2022-07-27T00:38:25.137Z,55.70
2022-07-27T00:40:53.744Z,55.77
2022-07-27T00:43:21.803Z,55.74
2022-07-27T00:45:51.463Z,55.26
2022-07-27T00:48:19.560Z,54.74
2022-07-27T00:50:49.000Z,54.86
2022-07-27T00:53:17.823Z,54.50
2022-07-27T00:55:46.644Z,54.74
2022-07-27T00:58:15.620Z,54.77
2022-07-27T01:00:43.808Z,53.07
2022-07-27T01:03:13.694Z,53.15
2022-07-27T01:05:44.747Z,52.33
2022-07-27T01:08:15.196Z,52.20
2022-07-27T01:10:44.866Z,52.36
2022-07-27T01:13:13.752Z,52.87
2022-07-27T01:15:44.039Z,52.01
2022-07-27T01:18:26.486Z,50.77
2022-07-27T01:20:54.673Z,50.84
2022-07-27T01:23:24.369Z,50.75
2022-07-27T01:25:52.701Z,50.44
2022-07-27T01:28:21.192Z,50.28
2022-07-27T01:30:49.357Z,50.51
2022-07-27T01:33:17.682Z,50.35
2022-07-27T01:35:45.771Z,50.54
2022-07-27T01:38:14.442Z,50.42
2022-07-27T01:40:43.866Z,50.97
2022-07-27T01:43:11.973Z,50.92
2022-07-27T01:45:41.302Z,51.89
2022-07-27T01:48:10.534Z,51.98
2022-07-27T01:50:39.514Z,51.25
2022-07-27T01:53:09.570Z,50.97
2022-07-27T01:55:39.440Z,51.69
2022-07-27T01:58:09.800Z,51.83
2022-07-27T02:00:38.818Z,51.99
2022-07-27T02:03:08.940Z,51.82
2022-07-27T02:05:39.529Z,50.71
2022-07-27T02:08:09.325Z,49.79
2022-07-27T02:10:58.578Z,50.40
2022-07-27T02:13:27.147Z,50.34
2022-07-27T02:15:56.978Z,50.92
2022-07-27T02:18:33.001Z,51.24
2022-07-27T02:21:04.579Z,50.76
2022-07-27T02:23:32.780Z,50.70
2022-07-27T02:26:01.220Z,49.61
2022-07-27T02:28:30.752Z,49.09
2022-07-27T02:30:58.871Z,50.07
2022-07-27T02:33:27.406Z,50.01
2022-07-27T02:35:55.570Z,50.34
2022-07-27T02:38:23.682Z,50.01
2022-07-27T02:40:51.755Z,49.64
2022-07-27T02:43:19.865Z,49.70
2022-07-27T02:45:49.500Z,50.26
2022-07-27T02:48:17.791Z,49.59
2022-07-27T02:50:45.972Z,49.42
2022-07-27T02:53:14.069Z,49.68
2022-07-27T02:55:42.399Z,50.39
2022-07-27T02:58:10.553Z,49.53
2022-07-27T03:00:38.754Z,49.26
2022-07-27T03:03:08.240Z,49.50
2022-07-27T03:05:36.847Z,48.93
2022-07-27T03:08:05.602Z,49.91
2022-07-27T03:10:33.748Z,49.12
2022-07-27T03:13:01.811Z,49.34
2022-07-27T03:15:30.628Z,50.52
2022-07-27T03:17:58.764Z,50.91
2022-07-27T03:20:28.446Z,51.24
2022-07-27T03:22:56.596Z,50.59
2022-07-27T03:25:25.893Z,50.59
2022-07-27T03:27:53.966Z,50.97
2022-07-27T03:30:22.502Z,50.01
2022-07-27T03:32:50.812Z,50.18
2022-07-27T03:35:19.812Z,49.73
2022-07-27T03:37:50.025Z,49.61
2022-07-27T03:40:18.795Z,50.35
2022-07-27T03:42:47.015Z,50.14
2022-07-27T03:45:15.196Z,49.71
2022-07-27T03:47:43.395Z,49.99
2022-07-27T03:50:12.359Z,50.41
2022-07-27T03:52:40.475Z,50.57
2022-07-27T03:55:15.342Z,50.40
2022-07-27T03:57:43.515Z,50.31
2022-07-27T04:00:14.027Z,50.17
2022-07-27T04:02:42.724Z,51.09
2022-07-27T04:05:11.842Z,51.15
2022-07-27T04:07:41.135Z,51.23
2022-07-27T04:10:10.862Z,51.19
2022-07-27T04:12:41.421Z,50.87
2022-07-27T04:15:10.813Z,51.34
2022-07-27T04:17:54.610Z,51.14
2022-07-27T04:20:25.820Z,51.12
2022-07-27T04:22:53.999Z,50.67
2022-07-27T04:25:22.576Z,50.51
2022-07-27T04:27:54.342Z,50.62
2022-07-27T04:30:23.101Z,51.07
2022-07-27T04:32:51.495Z,51.50
2022-07-27T04:35:24.253Z,51.17
2022-07-27T04:37:58.835Z,50.79
2022-07-27T04:40:32.305Z,50.77
2022-07-27T04:43:02.814Z,51.28
2022-07-27T04:45:31.539Z,51.38
2022-07-27T04:48:00.006Z,50.13
2022-07-27T04:50:28.016Z,50.24
2022-07-27T04:52:56.044Z,50.22
2022-07-27T04:55:24.312Z,50.52
2022-07-27T04:57:52.397Z,50.54
2022-07-27T05:00:22.024Z,50.47
2022-07-27T05:02:50.118Z,50.39
2022-07-27T05:05:18.268Z,50.60
2022-07-27T05:07:46.300Z,50.66
2022-07-27T05:10:19.445Z,50.75
2022-07-27T05:12:48.735Z,50.30
2022-07-27T05:15:17.598Z,50.33
2022-07-27T05:17:47.109Z,50.26
2022-07-27T05:20:17.435Z,50.51
2022-07-27T05:22:45.487Z,51.42
2022-07-27T05:25:13.969Z,51.18
2022-07-27T05:27:54.762Z,50.76
2022-07-27T05:30:25.359Z,51.12
2022-07-27T05:32:54.914Z,51.45
2022-07-27T05:35:23.512Z,51.40
2022-07-27T05:37:51.611Z,51.08
2022-07-27T05:40:19.866Z,51.71
2022-07-27T05:42:48.176Z,51.61
2022-07-27T05:45:16.734Z,51.54
2022-07-27T05:47:44.881Z,51.45
2022-07-27T05:50:15.042Z,51.09
2022-07-27T05:52:43.698Z,51.66
2022-07-27T05:55:12.683Z,51.02
2022-07-27T05:57:42.063Z,51.42
2022-07-27T06:00:12.342Z,51.78
2022-07-27T06:02:40.805Z,52.03
2022-07-27T06:05:15.246Z,51.54
2022-07-27T06:08:00.086Z,51.71
2022-07-27T06:10:30.082Z,52.33
2022-07-27T06:12:58.161Z,52.05
2022-07-27T06:15:26.266Z,51.96
2022-07-27T06:17:54.739Z,52.13
2022-07-27T06:20:24.771Z,51.21
2022-07-27T06:22:57.125Z,49.86
2022-07-27T06:25:34.166Z,49.76
2022-07-27T06:28:04.925Z,49.72
2022-07-27T06:30:33.625Z,49.92
2022-07-27T06:33:04.176Z,50.12
2022-07-27T06:35:32.470Z,49.31
2022-07-27T06:38:03.121Z,49.03
2022-07-27T06:40:32.139Z,49.19
2022-07-27T06:43:00.455Z,49.36
2022-07-27T06:45:28.806Z,48.48
2022-07-27T06:47:57.557Z,48.87
2022-07-27T06:50:26.221Z,49.21
2022-07-27T06:52:54.339Z,47.72
2022-07-27T06:55:23.788Z,47.35
2022-07-27T06:57:51.951Z,46.95
2022-07-27T07:00:20.000Z,47.56
2022-07-27T07:02:57.023Z,47.15
2022-07-27T07:05:25.806Z,46.35
2022-07-27T07:07:55.301Z,45.71
2022-07-27T07:10:27.024Z,45.60
2022-07-27T07:12:56.525Z,45.79
2022-07-27T07:15:26.235Z,46.03
2022-07-27T07:17:54.658Z,46.13
2022-07-27T07:20:23.452Z,45.90
2022-07-27T07:22:51.783Z,46.27
2022-07-27T07:25:19.837Z,46.67
2022-07-27T07:27:49.986Z,46.19
2022-07-27T07:30:18.143Z,46.40
2022-07-27T07:32:46.189Z,45.40
2022-07-27T07:35:14.434Z,44.85
2022-07-27T07:37:42.758Z,45.43
2022-07-27T07:40:41.525Z,45.98
2022-07-27T07:43:03.995Z,44.52
2022-07-27T07:45:39.091Z,45.68
2022-07-27T07:48:19.740Z,45.57
2022-07-27T07:50:51.507Z,45.31
2022-07-27T07:53:21.466Z,45.19
2022-07-27T07:55:49.698Z,45.17
2022-07-27T07:58:19.267Z,43.82
2022-07-27T08:00:47.399Z,44.51
2022-07-27T08:03:16.229Z,45.31
2022-07-27T08:05:44.732Z,44.67
2022-07-27T08:08:13.334Z,44.79
2022-07-27T08:10:41.768Z,43.97
2022-07-27T08:13:09.877Z,44.02
2022-07-27T08:15:39.357Z,43.81
2022-07-27T08:18:09.509Z,43.18
2022-07-27T08:20:37.649Z,43.45
2022-07-27T08:23:06.069Z,43.62
2022-07-27T08:25:34.677Z,43.60
2022-07-27T08:28:03.046Z,43.01
2022-07-27T08:30:32.935Z,41.87
2022-07-27T08:33:05.745Z,41.07
2022-07-27T08:35:36.246Z,41.19
2022-07-27T08:38:09.394Z,41.46
2022-07-27T08:40:42.529Z,41.00
2022-07-27T08:43:18.895Z,41.25
2022-07-27T08:45:56.325Z,41.59
2022-07-27T08:48:27.673Z,40.87
2022-07-27T08:50:56.673Z,41.45
2022-07-27T08:53:25.329Z,39.69
2022-07-27T08:55:56.693Z,40.79
2022-07-27T08:58:25.068Z,40.85
2022-07-27T09:00:53.464Z,41.82
2022-07-27T09:03:23.802Z,41.68
2022-07-27T09:05:56.352Z,41.63
2022-07-27T09:08:30.195Z,42.16
2022-07-27T09:11:00.908Z,42.25
2022-07-27T09:13:31.642Z,41.55
2022-07-27T09:16:19.347Z,41.20
2022-07-27T09:18:49.629Z,41.64
2022-07-27T09:21:22.539Z,41.39
2022-07-27T09:23:53.500Z,41.16
2022-07-27T09:26:33.875Z,40.04
2022-07-27T09:29:06.054Z,39.40
2022-07-27T09:31:41.689Z,38.94
2022-07-27T09:34:10.205Z,38.74
2022-07-27T09:36:53.917Z,38.34
2022-07-27T09:39:24.836Z,38.80
2022-07-27T09:41:55.673Z,38.52
2022-07-27T09:44:41.971Z,36.93
2022-07-27T09:47:26.326Z,38.07
2022-07-27T09:49:57.175Z,36.75
2022-07-27T09:52:31.097Z,36.54
2022-07-27T09:55:05.953Z,37.74
2022-07-27T09:57:53.192Z,37.81
2022-07-27T10:00:22.494Z,38.71
2022-07-27T10:02:51.096Z,38.87
2022-07-27T10:05:21.639Z,38.28
2022-07-27T10:07:54.397Z,38.69
2022-07-27T10:10:24.089Z,38.47
2022-07-27T10:12:55.264Z,37.75
2022-07-27T10:15:24.368Z,36.49
2022-07-27T10:18:07.394Z,35.51
2022-07-27T10:20:42.169Z,35.93
2022-07-27T10:23:28.776Z,37.29
2022-07-27T10:26:22.767Z,36.88
2022-07-27T10:28:57.961Z,36.97
2022-07-27T10:31:28.498Z,37.35
2022-07-27T10:34:00.127Z,37.50
2022-07-27T10:36:53.843Z,35.93
2022-07-27T10:39:36.370Z,35.16
2022-07-27T10:42:25.219Z,35.90
2022-07-27T10:45:00.531Z,35.99
2022-07-27T10:47:41.521Z,36.24
2022-07-27T10:50:29.755Z,36.04
2022-07-27T10:53:02.454Z,36.98
2022-07-27T10:55:50.120Z,36.29
2022-07-27T10:58:51.199Z,37.19
2022-07-27T11:01:22.610Z,37.09
2022-07-27T11:03:53.562Z,37.33
2022-07-27T11:06:41.860Z,37.00
2022-07-27T11:12:07.732Z,36.34
2022-07-27T11:14:47.486Z,36.04
2022-07-27T11:17:49.454Z,36.66
2022-07-27T11:20:06.959Z,37.02
2022-07-27T11:23:20.806Z,37.45
2022-07-27T11:25:27.483Z,38.10
2022-07-27T11:27:56.934Z,38.60
2022-07-27T11:30:27.744Z,37.96
2022-07-27T11:32:56.802Z,37.91
2022-07-27T11:35:26.148Z,38.18
2022-07-27T11:38:03.210Z,37.26
2022-07-27T11:43:45.214Z,36.60
2022-07-27T11:46:17.149Z,36.62
2022-07-27T11:49:08.425Z,37.19
2022-07-27T11:51:41.167Z,36.92
2022-07-27T11:54:12.454Z,37.28
2022-07-27T11:56:44.401Z,38.10
2022-07-27T11:59:17.610Z,38.01
2022-07-27T12:01:51.156Z,36.89
2022-07-27T12:04:27.472Z,36.68
2022-07-27T12:07:07.607Z,37.09
2022-07-27T12:09:39.120Z,37.57
2022-07-27T12:12:18.014Z,36.55
2022-07-27T12:14:51.050Z,36.22
2022-07-27T12:17:31.011Z,35.67
2022-07-27T12:20:05.917Z,34.61
2022-07-27T12:22:39.022Z,34.24
2022-07-27T12:25:16.074Z,34.01
2022-07-27T12:27:57.325Z,34.24
2022-07-27T12:30:35.263Z,34.39
2022-07-27T12:33:07.278Z,34.48
2022-07-27T12:35:47.181Z,35.05
2022-07-27T12:38:16.250Z,35.45
2022-07-27T12:40:47.743Z,35.51
2022-07-27T12:43:19.162Z,34.54
2022-07-27T12:45:51.769Z,34.56
2022-07-27T12:48:23.480Z,34.04
2022-07-27T12:51:00.625Z,33.82
2022-07-27T12:53:30.162Z,33.45
2022-07-27T12:56:01.362Z,33.69
2022-07-27T12:58:29.658Z,33.28
2022-07-27T13:00:59.162Z,33.88
2022-07-27T13:03:27.278Z,33.66
2022-07-27T13:05:55.287Z,33.78
2022-07-27T13:08:23.562Z,33.49
2022-07-27T13:10:52.836Z,33.90
2022-07-27T13:13:24.266Z,33.93
2022-07-27T13:15:52.735Z,34.44
2022-07-27T13:18:24.026Z,34.59
2022-07-27T13:20:52.530Z,35.01
2022-07-27T13:23:21.306Z,35.69
2022-07-27T13:25:49.608Z,35.57
2022-07-27T13:28:17.906Z,34.70
2022-07-27T13:30:45.900Z,34.47
2022-07-27T13:33:14.021Z,34.61
2022-07-27T13:35:43.661Z,34.64
2022-07-27T13:38:16.304Z,34.92
2022-07-27T13:40:45.175Z,34.92
2022-07-27T13:43:13.282Z,34.84
2022-07-27T13:45:43.325Z,34.47
2022-07-27T13:48:13.050Z,33.93
2022-07-27T13:50:42.816Z,33.58
2022-07-27T13:53:15.270Z,32.63
2022-07-27T13:55:44.650Z,32.60
2022-07-27T13:58:12.889Z,32.09
2022-07-27T14:00:41.644Z,32.40
2022-07-27T14:03:11.514Z,31.95
2022-07-27T14:05:45.429Z,31.44
2022-07-27T14:08:20.951Z,31.23
2022-07-27T14:10:49.077Z,30.71
2022-07-27T14:13:22.168Z,30.43
2022-07-27T14:15:54.473Z,31.42
2022-07-27T14:18:26.289Z,31.37
2022-07-27T14:20:55.441Z,31.48
2022-07-27T14:23:26.274Z,31.40
2022-07-27T14:25:56.695Z,31.74
2022-07-27T14:28:26.494Z,31.45
2022-07-27T14:30:55.243Z,31.54
2022-07-27T14:33:24.628Z,31.08
2022-07-27T14:35:53.588Z,30.83
2022-07-27T14:38:29.719Z,31.63
2022-07-27T14:41:01.585Z,31.54
2022-07-27T14:43:30.510Z,31.75
2022-07-27T14:45:59.263Z,31.65
2022-07-27T14:48:48.867Z,32.43
2022-07-27T14:51:16.014Z,32.51
2022-07-27T14:53:44.138Z,32.59
2022-07-27T14:56:13.723Z,32.75
2022-07-27T14:58:41.904Z,32.90
2022-07-27T15:01:10.068Z,32.61
2022-07-27T15:03:38.208Z,33.08
2022-07-27T15:06:06.400Z,33.47
2022-07-27T15:08:34.503Z,32.65
2022-07-27T15:11:02.598Z,33.45
2022-07-27T15:13:32.085Z,33.64
2022-07-27T15:16:00.262Z,33.37
2022-07-27T15:18:28.474Z,33.21
2022-07-27T15:20:56.555Z,33.04
2022-07-27T15:23:24.666Z,32.73
2022-07-27T15:25:53.710Z,33.06
2022-07-27T15:28:21.891Z,33.22
2022-07-27T15:30:53.520Z,32.25
2022-07-27T15:33:21.570Z,32.53
2022-07-27T15:35:49.690Z,32.65
2022-07-27T15:38:17.732Z,32.46
2022-07-27T15:40:45.829Z,32.22
2022-07-27T15:43:17.224Z,32.19
2022-07-27T15:45:48.864Z,31.97
2022-07-27T15:48:20.515Z,32.17
2022-07-27T15:50:52.571Z,32.24
2022-07-27T15:53:23.061Z,32.48
2022-07-27T15:55:52.744Z,32.28
2022-07-27T15:58:22.039Z,31.95
2022-07-27T16:00:56.118Z,32.00
2022-07-27T16:03:27.450Z,31.73
2022-07-27T16:05:56.905Z,32.05
2022-07-27T16:08:27.066Z,31.78
2022-07-27T16:10:55.072Z,31.88
2022-07-27T16:13:23.135Z,32.70
2022-07-27T16:16:09.206Z,32.17
2022-07-27T16:18:39.240Z,32.39
2022-07-27T16:21:07.532Z,32.12
2022-07-27T16:23:35.876Z,32.36
2022-07-27T16:26:06.101Z,32.62
2022-07-27T16:28:38.493Z,32.44
2022-07-27T16:31:08.669Z,32.42
2022-07-27T16:33:38.927Z,32.69
2022-07-27T16:36:08.493Z,33.04
2022-07-27T16:38:36.932Z,32.75
2022-07-27T16:41:07.333Z,32.97
2022-07-27T16:43:38.070Z,33.33
2022-07-27T16:46:10.003Z,33.09
2022-07-27T16:48:41.701Z,33.55
2022-07-27T16:51:11.157Z,33.79
2022-07-27T16:53:40.060Z,33.34
2022-07-27T16:56:09.183Z,33.46
2022-07-27T16:58:39.227Z,33.60
2022-07-27T17:01:09.401Z,33.95
2022-07-27T17:03:39.049Z,33.84
2022-07-27T17:06:07.569Z,33.59
2022-07-27T17:08:36.626Z,33.70
2022-07-27T17:11:06.206Z,33.67
2022-07-27T17:13:35.715Z,33.71
2022-07-27T17:16:05.682Z,33.42
2022-07-27T17:18:39.957Z,33.52
2022-07-27T17:21:12.526Z,34.44
2022-07-27T17:23:41.988Z,34.27
2022-07-27T17:26:11.300Z,33.76
2022-07-27T17:28:40.754Z,34.35
2022-07-27T17:31:12.411Z,34.22
2022-07-27T17:33:41.800Z,34.30
2022-07-27T17:36:14.997Z,34.20
2022-07-27T17:38:44.386Z,34.74
2022-07-27T17:41:13.194Z,34.58
2022-07-27T17:43:41.835Z,34.10
2022-07-27T17:46:12.627Z,34.39
2022-07-27T17:48:41.447Z,34.33
2022-07-27T17:51:11.630Z,34.25
2022-07-27T17:53:40.015Z,34.25
2022-07-27T17:56:08.531Z,34.97
2022-07-27T17:58:36.907Z,34.74
2022-07-27T18:01:05.325Z,34.78
2022-07-27T18:03:33.718Z,35.35
2022-07-27T18:06:02.644Z,34.70
2022-07-27T18:08:32.194Z,34.94
2022-07-27T18:11:00.533Z,35.32
2022-07-27T18:13:39.505Z,35.55
2022-07-27T18:16:11.545Z,35.47
2022-07-27T18:18:41.265Z,35.45
2022-07-27T18:21:10.997Z,35.53
2022-07-27T18:23:40.977Z,35.69
2022-07-27T18:26:10.810Z,36.10
2022-07-27T18:28:40.029Z,36.11
2022-07-27T18:31:12.280Z,36.61
2022-07-27T18:33:45.712Z,36.68
2022-07-27T18:36:14.520Z,36.63
2022-07-27T18:38:45.056Z,36.91
2022-07-27T18:41:14.087Z,37.24
2022-07-27T18:43:42.204Z,37.53
2022-07-27T18:46:10.303Z,37.37
2022-07-27T18:48:38.830Z,37.84
2022-07-27T18:51:06.927Z,38.07
2022-07-27T18:53:35.059Z,38.72
2022-07-27T18:56:04.875Z,38.39
2022-07-27T18:58:33.235Z,38.56
2022-07-27T19:01:01.199Z,38.95
2022-07-27T19:03:30.501Z,38.72
2022-07-27T19:05:58.590Z,39.05
2022-07-27T19:08:26.807Z,39.82
2022-07-27T19:10:54.868Z,40.29
2022-07-27T19:13:24.353Z,40.75
2022-07-27T19:15:52.471Z,39.80
2022-07-27T19:18:20.548Z,40.24
2022-07-27T19:20:48.648Z,40.69
2022-07-27T19:23:17.167Z,41.08
2022-07-27T19:25:46.085Z,41.51
2022-07-27T19:28:18.885Z,41.55
2022-07-27T19:30:48.694Z,41.52
2022-07-27T19:33:16.730Z,41.86
2022-07-27T19:35:44.903Z,42.46
2022-07-27T19:38:13.356Z,41.83
2022-07-27T19:40:45.006Z,42.39
2022-07-27T19:43:15.739Z,42.38
2022-07-27T19:45:44.001Z,42.64
2022-07-27T19:48:13.738Z,42.93
2022-07-27T19:50:42.422Z,42.97
2022-07-27T19:53:10.624Z,42.92
2022-07-27T19:55:38.840Z,43.22
2022-07-27T19:58:06.894Z,43.28
2022-07-27T20:00:35.021Z,43.61
2022-07-27T20:03:03.423Z,43.64
2022-07-27T20:05:32.931Z,43.80
2022-07-27T20:08:01.102Z,44.02
2022-07-27T20:10:29.216Z,44.03
2022-07-27T20:12:57.415Z,44.27
2022-07-27T20:15:26.311Z,44.84
2022-07-27T20:17:54.320Z,44.97
2022-07-27T20:20:22.691Z,44.94
2022-07-27T20:22:52.453Z,45.75
2022-07-27T20:25:20.557Z,45.57
2022-07-27T20:27:48.934Z,45.57
2022-07-27T20:30:19.955Z,45.66
2022-07-27T20:32:49.006Z,45.92
2022-07-27T20:35:17.768Z,45.81
2022-07-27T20:37:47.318Z,46.20
2022-07-27T20:40:16.886Z,45.76
2022-07-27T20:42:45.315Z,45.44
2022-07-27T20:45:14.590Z,45.41
2022-07-27T20:47:44.131Z,45.81
2022-07-27T20:50:15.429Z,46.05
2022-07-27T20:52:44.318Z,46.46
2022-07-27T20:55:12.967Z,45.97
2022-07-27T20:57:42.325Z,46.00
2022-07-27T21:00:12.752Z,46.17
2022-07-27T21:02:40.906Z,46.19
2022-07-27T21:05:10.417Z,46.24
2022-07-27T21:07:38.834Z,46.15
2022-07-27T21:10:08.560Z,45.88
2022-07-27T21:12:36.698Z,45.89
2022-07-27T21:15:13.075Z,46.07
2022-07-27T21:17:41.724Z,46.00
2022-07-27T21:20:11.489Z,45.86
2022-07-27T21:22:39.528Z,45.95
2022-07-27T21:25:08.663Z,45.82
2022-07-27T21:27:37.127Z,45.63
2022-07-27T21:30:09.633Z,45.59
2022-07-27T21:32:37.665Z,46.30
2022-07-27T21:35:07.363Z,46.88
2022-07-27T21:37:35.600Z,46.98
2022-07-27T21:40:03.646Z,47.25
2022-07-27T21:42:32.986Z,47.51
2022-07-27T21:45:01.000Z,47.98
2022-07-27T21:47:31.904Z,47.67
2022-07-27T21:50:00.092Z,47.49
2022-07-27T21:52:28.063Z,47.53
2022-07-27T21:54:56.113Z,47.65
2022-07-27T21:57:24.187Z,47.87
2022-07-27T21:59:52.425Z,47.80
2022-07-27T22:02:20.524Z,47.58
2022-07-27T22:04:50.089Z,47.91
2022-07-27T22:07:19.564Z,48.31
2022-07-27T22:09:47.728Z,48.54
2022-07-27T22:12:15.857Z,48.47
2022-07-27T22:14:43.977Z,48.55
2022-07-27T22:17:12.041Z,48.84
2022-07-27T22:19:40.242Z,49.19
2022-07-27T22:22:09.685Z,49.23
2022-07-27T22:24:38.084Z,49.33
2022-07-27T22:27:06.890Z,49.89
2022-07-27T22:29:35.607Z,49.69
2022-07-27T22:32:03.988Z,49.69
2022-07-27T22:34:32.149Z,49.74
2022-07-27T22:37:00.501Z,49.87
2022-07-27T22:39:30.114Z,49.48
2022-07-27T22:41:59.045Z,49.39
2022-07-27T22:44:27.242Z,49.84
2022-07-27T22:46:55.477Z,49.86
2022-07-27T22:49:23.690Z,49.81
2022-07-27T22:51:52.841Z,49.76
2022-07-27T22:54:23.067Z,50.12
2022-07-27T22:56:53.320Z,50.13
2022-07-27T22:59:21.840Z,50.00
2022-07-27T23:01:49.942Z,49.56
2022-07-27T23:04:18.732Z,50.27
2022-07-27T23:06:47.652Z,50.35
2022-07-27T23:09:16.727Z,49.92
2022-07-27T23:11:45.501Z,50.11
2022-07-27T23:14:15.340Z,50.86
2022-07-27T23:16:44.471Z,50.56
2022-07-27T23:19:12.682Z,50.86
2022-07-27T23:21:41.754Z,50.63
2022-07-27T23:24:13.521Z,50.79
2022-07-27T23:26:42.702Z,50.95
2022-07-27T23:29:10.954Z,50.83
2022-07-27T23:31:40.503Z,51.06
2022-07-27T23:34:08.677Z,51.16
2022-07-27T23:36:36.760Z,51.83
2022-07-27T23:39:05.190Z,51.82
2022-07-27T23:41:33.232Z,52.06
2022-07-27T23:44:01.353Z,52.61
2022-07-27T23:46:29.598Z,52.99
2022-07-27T23:48:59.089Z,52.89
2022-07-27T23:51:27.174Z,52.18
2022-07-27T23:53:55.195Z,52.42
2022-07-27T23:56:23.239Z,52.33
2022-07-27T23:58:51.275Z,52.15
